sensor_id;sensor_type;location;lat;lon;timestamp;pressure;altitude;pressure_sealevel;temperature;humidity
72585;BME280;60618;40.084;32.908;2023-06-22T00:01:02;89781.41;;;15.31;74.46
72585;BME280;60618;40.084;32.908;2023-06-22T00:03:29;89780.47;;;15.29;75.14
72585;BME280;60618;40.084;32.908;2023-06-22T00:05:56;89771.72;;;15.12;75.67
72585;BME280;60618;40.084;32.908;2023-06-22T00:08:23;89771.97;;;15.14;74.87
72585;BME280;60618;40.084;32.908;2023-06-22T00:10:50;89765.16;;;15.13;75.99
72585;BME280;60618;40.084;32.908;2023-06-22T00:13:17;89778.78;;;15.09;75.85
72585;BME280;60618;40.084;32.908;2023-06-22T00:15:44;89773.19;;;15.13;75.53
72585;BME280;60618;40.084;32.908;2023-06-22T00:18:11;89765.16;;;15.13;75.58
72585;BME280;60618;40.084;32.908;2023-06-22T00:20:38;89767.06;;;15.18;75.12
72585;BME280;60618;40.084;32.908;2023-06-22T00:23:06;89767.34;;;15.09;76.25
72585;BME280;60618;40.084;32.908;2023-06-22T00:25:37;89779.09;;;14.89;76.55
72585;BME280;60618;40.084;32.908;2023-06-22T00:28:04;89777.69;;;14.65;78.38
72585;BME280;60618;40.084;32.908;2023-06-22T00:30:32;89782.81;;;14.52;78.84
72585;BME280;60618;40.084;32.908;2023-06-22T00:32:59;89780.13;;;14.46;79.09
72585;BME280;60618;40.084;32.908;2023-06-22T00:35:27;89777.66;;;14.37;79.34
72585;BME280;60618;40.084;32.908;2023-06-22T00:37:55;89777.44;;;14.24;79.58
72585;BME280;60618;40.084;32.908;2023-06-22T00:40:22;89775.72;;;14.21;80.12
72585;BME280;60618;40.084;32.908;2023-06-22T00:42:49;89764.25;;;14.09;80.23
72585;BME280;60618;40.084;32.908;2023-06-22T00:45:16;89784.97;;;14.09;79.98
72585;BME280;60618;40.084;32.908;2023-06-22T00:47:43;89783.50;;;14.08;80.37
72585;BME280;60618;40.084;32.908;2023-06-22T00:50:17;89775.47;;;13.97;80.01
72585;BME280;60618;40.084;32.908;2023-06-22T00:52:45;89772.78;;;14.08;79.23
72585;BME280;60618;40.084;32.908;2023-06-22T00:55:12;89772.78;;;14.08;79.10
72585;BME280;60618;40.084;32.908;2023-06-22T00:57:39;89767.91;;;14.17;79.09
72585;BME280;60618;40.084;32.908;2023-06-22T01:00:07;89764.03;;;14.07;79.67
72585;BME280;60618;40.084;32.908;2023-06-22T01:02:35;89773.03;;;14.10;79.37
72585;BME280;60618;40.084;32.908;2023-06-22T01:05:02;89769.63;;;14.04;79.45
72585;BME280;60618;40.084;32.908;2023-06-22T01:07:31;89766.19;;;13.86;80.75
72585;BME280;60618;40.084;32.908;2023-06-22T01:10:16;89766.94;;;13.87;80.95
72585;BME280;60618;40.084;32.908;2023-06-22T01:12:52;89773.47;;;13.80;81.19
72585;BME280;60618;40.084;32.908;2023-06-22T01:15:40;89756.44;;;13.72;81.16
72585;BME280;60618;40.084;32.908;2023-06-22T01:18:11;89766.66;;;13.68;81.47
72585;BME280;60618;40.084;32.908;2023-06-22T01:20:40;89779.56;;;13.75;81.07
72585;BME280;60618;40.084;32.908;2023-06-22T01:28:52;89774.22;;;13.75;80.52
72585;BME280;60618;40.084;32.908;2023-06-22T01:31:26;89777.59;;;13.70;80.89
72585;BME280;60618;40.084;32.908;2023-06-22T01:33:56;89771.78;;;13.66;80.85
72585;BME280;60618;40.084;32.908;2023-06-22T01:36:24;89775.16;;;13.72;80.85
72585;BME280;60618;40.084;32.908;2023-06-22T01:38:52;89775.63;;;13.59;81.23
72585;BME280;60618;40.084;32.908;2023-06-22T01:41:20;89781.69;;;13.49;81.47
72585;BME280;60618;40.084;32.908;2023-06-22T01:43:48;89779.03;;;13.54;81.75
72585;BME280;60618;40.084;32.908;2023-06-22T01:46:16;89783.94;;;13.67;80.31
72585;BME280;60618;40.084;32.908;2023-06-22T01:48:44;89784.88;;;13.58;81.09
72585;BME280;60618;40.084;32.908;2023-06-22T01:51:11;89785.84;;;13.55;80.92
72585;BME280;60618;40.084;32.908;2023-06-22T01:53:38;89790.19;;;13.47;80.78
72585;BME280;60618;40.084;32.908;2023-06-22T01:56:05;89793.59;;;13.48;81.24
72585;BME280;60618;40.084;32.908;2023-06-22T01:58:33;89784.31;;;13.38;81.79
72585;BME280;60618;40.084;32.908;2023-06-22T02:01:10;89795.22;;;13.28;81.54
72585;BME280;60618;40.084;32.908;2023-06-22T02:03:44;89800.13;;;13.35;81.00
72585;BME280;60618;40.084;32.908;2023-06-22T02:06:24;89798.22;;;13.42;79.24
72585;BME280;60618;40.084;32.908;2023-06-22T02:08:59;89803.38;;;13.62;77.46
72585;BME280;60618;40.084;32.908;2023-06-22T02:11:28;89794.84;;;13.58;76.41
72585;BME280;60618;40.084;32.908;2023-06-22T02:13:57;89789.28;;;13.67;76.30
72585;BME280;60618;40.084;32.908;2023-06-22T02:16:25;89800.25;;;13.69;76.38
72585;BME280;60618;40.084;32.908;2023-06-22T02:18:52;89796.06;;;13.57;75.44
72585;BME280;60618;40.084;32.908;2023-06-22T02:21:20;89787.81;;;13.60;75.37
72585;BME280;60618;40.084;32.908;2023-06-22T02:23:47;89786.56;;;13.50;75.92
72585;BME280;60618;40.084;32.908;2023-06-22T02:26:17;89796.59;;;13.67;75.57
72585;BME280;60618;40.084;32.908;2023-06-22T02:28:44;89793.84;;;13.50;74.85
72585;BME280;60618;40.084;32.908;2023-06-22T02:31:11;89798.69;;;13.46;73.47
72585;BME280;60618;40.084;32.908;2023-06-22T02:33:38;89794.56;;;13.45;73.46
72585;BME280;60618;40.084;32.908;2023-06-22T02:36:05;89802.13;;;13.52;73.44
72585;BME280;60618;40.084;32.908;2023-06-22T02:38:32;89810.84;;;13.47;72.78
72585;BME280;60618;40.084;32.908;2023-06-22T02:40:59;89807.25;;;13.55;72.37
72585;BME280;60618;40.084;32.908;2023-06-22T02:43:26;89813.75;;;13.38;73.11
72585;BME280;60618;40.084;32.908;2023-06-22T02:45:53;89816.69;;;13.40;72.05
72585;BME280;60618;40.084;32.908;2023-06-22T02:48:20;89819.09;;;13.38;71.37
72585;BME280;60618;40.084;32.908;2023-06-22T02:50:47;89808.22;;;13.52;70.85
72585;BME280;60618;40.084;32.908;2023-06-22T02:53:14;89814.53;;;13.55;70.97
72585;BME280;60618;40.084;32.908;2023-06-22T02:55:41;89814.81;;;13.57;70.17
72585;BME280;60618;40.084;32.908;2023-06-22T02:58:08;89820.16;;;13.62;70.32
72585;BME280;60618;40.084;32.908;2023-06-22T03:00:35;89816.03;;;13.61;70.38
72585;BME280;60618;40.084;32.908;2023-06-22T03:03:02;89820.38;;;13.53;70.61
72585;BME280;60618;40.084;32.908;2023-06-22T03:05:29;89823.78;;;13.48;71.99
72585;BME280;60618;40.084;32.908;2023-06-22T03:07:56;89825.69;;;13.42;72.36
72585;BME280;60618;40.084;32.908;2023-06-22T03:10:22;89824.97;;;13.42;72.00
72585;BME280;60618;40.084;32.908;2023-06-22T03:12:49;89831.81;;;13.54;70.71
72585;BME280;60618;40.084;32.908;2023-06-22T03:15:16;89827.19;;;13.54;71.52
72585;BME280;60618;40.084;32.908;2023-06-22T03:17:43;89819.19;;;13.60;71.54
72585;BME280;60618;40.084;32.908;2023-06-22T03:20:11;89833.31;;;13.60;71.57
72585;BME280;60618;40.084;32.908;2023-06-22T03:22:39;89825.97;;;13.50;71.81
72585;BME280;60618;40.084;32.908;2023-06-22T03:25:07;89838.13;;;13.51;72.25
72585;BME280;60618;40.084;32.908;2023-06-22T03:27:34;89835.19;;;13.43;72.01
72585;BME280;60618;40.084;32.908;2023-06-22T03:30:01;89828.16;;;13.51;72.40
72585;BME280;60618;40.084;32.908;2023-06-22T03:32:28;89827.19;;;13.49;71.98
72585;BME280;60618;40.084;32.908;2023-06-22T03:34:55;89842.50;;;13.54;72.51
72585;BME280;60618;40.084;32.908;2023-06-22T03:37:22;89832.09;;;13.61;72.78
72585;BME280;60618;40.084;32.908;2023-06-22T03:39:49;89835.00;;;13.58;73.07
72585;BME280;60618;40.084;32.908;2023-06-22T03:42:15;89831.88;;;13.71;73.06
72585;BME280;60618;40.084;32.908;2023-06-22T03:44:42;89839.19;;;13.81;72.78
72585;BME280;60618;40.084;32.908;2023-06-22T03:47:09;89835.31;;;13.82;72.88
72585;BME280;60618;40.084;32.908;2023-06-22T03:49:36;89846.28;;;14.01;73.30
72585;BME280;60618;40.084;32.908;2023-06-22T03:52:03;89853.38;;;14.10;72.70
72585;BME280;60618;40.084;32.908;2023-06-22T03:54:31;89860.22;;;14.16;71.90
72585;BME280;60618;40.084;32.908;2023-06-22T03:56:58;89862.44;;;14.24;71.68
72585;BME280;60618;40.084;32.908;2023-06-22T03:59:25;89874.34;;;14.28;71.81
72585;BME280;60618;40.084;32.908;2023-06-22T04:01:52;89865.59;;;14.44;71.26
72585;BME280;60618;40.084;32.908;2023-06-22T04:04:19;89866.16;;;14.60;70.17
72585;BME280;60618;40.084;32.908;2023-06-22T04:06:46;89872.72;;;14.64;71.71
72585;BME280;60618;40.084;32.908;2023-06-22T04:09:13;89880.53;;;14.79;71.43
72585;BME280;60618;40.084;32.908;2023-06-22T04:11:40;89872.00;;;14.86;70.20
72585;BME280;60618;40.084;32.908;2023-06-22T04:14:07;89870.78;;;14.87;70.10
72585;BME280;60618;40.084;32.908;2023-06-22T04:16:33;89870.53;;;14.96;70.13
72585;BME280;60618;40.084;32.908;2023-06-22T04:19:00;89870.78;;;14.93;69.90
72585;BME280;60618;40.084;32.908;2023-06-22T04:21:27;89878.56;;;14.91;68.99
72585;BME280;60618;40.084;32.908;2023-06-22T04:23:54;89879.28;;;15.14;69.55
72585;BME280;60618;40.084;32.908;2023-06-22T04:26:21;89878.53;;;15.24;68.38
72585;BME280;60618;40.084;32.908;2023-06-22T04:28:48;89895.28;;;15.58;67.55
72585;BME280;60618;40.084;32.908;2023-06-22T04:31:15;89891.59;;;15.78;68.24
72585;BME280;60618;40.084;32.908;2023-06-22T04:33:42;89883.25;;;16.40;67.18
72585;BME280;60618;40.084;32.908;2023-06-22T04:36:09;89878.50;;;16.57;63.61
72585;BME280;60618;40.084;32.908;2023-06-22T04:38:36;89882.75;;;16.41;62.55
72585;BME280;60618;40.084;32.908;2023-06-22T04:41:03;89897.69;;;16.37;61.81
72585;BME280;60618;40.084;32.908;2023-06-22T04:43:30;89889.22;;;16.22;62.11
72585;BME280;60618;40.084;32.908;2023-06-22T04:45:57;89895.38;;;16.11;62.59
72585;BME280;60618;40.084;32.908;2023-06-22T04:48:24;89900.53;;;16.03;63.32
72585;BME280;60618;40.084;32.908;2023-06-22T04:50:51;89898.16;;;15.88;62.60
72585;BME280;60618;40.084;32.908;2023-06-22T04:53:18;89891.31;;;15.93;65.17
72585;BME280;60618;40.084;32.908;2023-06-22T04:55:45;89887.66;;;15.91;65.12
72585;BME280;60618;40.084;32.908;2023-06-22T04:58:11;89887.63;;;15.96;66.01
72585;BME280;60618;40.084;32.908;2023-06-22T05:00:38;89897.38;;;15.99;64.52
72585;BME280;60618;40.084;32.908;2023-06-22T05:03:05;89890.81;;;15.89;64.75
72585;BME280;60618;40.084;32.908;2023-06-22T05:05:45;89891.09;;;15.80;65.68
72585;BME280;60618;40.084;32.908;2023-06-22T05:08:13;89896.19;;;15.89;65.17
72585;BME280;60618;40.084;32.908;2023-06-22T05:10:40;89898.28;;;16.18;63.72
72585;BME280;60618;40.084;32.908;2023-06-22T05:13:27;89898.94;;;16.30;67.37
72585;BME280;60618;40.084;32.908;2023-06-22T05:15:54;89891.94;;;16.57;63.85
72585;BME280;60618;40.084;32.908;2023-06-22T05:18:21;89898.06;;;16.52;63.78
72585;BME280;60618;40.084;32.908;2023-06-22T05:20:48;89904.81;;;16.29;66.40
72585;BME280;60618;40.084;32.908;2023-06-22T05:23:15;89907.81;;;16.61;65.25
72585;BME280;60618;40.084;32.908;2023-06-22T05:25:42;89909.13;;;16.43;65.83
72585;BME280;60618;40.084;32.908;2023-06-22T05:28:09;89905.34;;;16.22;66.01
72585;BME280;60618;40.084;32.908;2023-06-22T05:30:36;89913.09;;;16.31;67.42
72585;BME280;60618;40.084;32.908;2023-06-22T05:33:03;89903.53;;;16.35;66.05
72585;BME280;60618;40.084;32.908;2023-06-22T05:35:30;89905.16;;;16.55;67.55
72585;BME280;60618;40.084;32.908;2023-06-22T05:37:57;89916.41;;;16.95;64.65
72585;BME280;60618;40.084;32.908;2023-06-22T05:40:23;89904.06;;;16.81;65.49
72585;BME280;60618;40.084;32.908;2023-06-22T05:42:50;89912.44;;;16.71;65.38
72585;BME280;60618;40.084;32.908;2023-06-22T05:45:17;89909.97;;;16.62;65.57
72585;BME280;60618;40.084;32.908;2023-06-22T05:47:44;89907.41;;;16.87;65.30
72585;BME280;60618;40.084;32.908;2023-06-22T05:50:11;89906.25;;;17.12;67.28
72585;BME280;60618;40.084;32.908;2023-06-22T05:52:39;89904.88;;;17.00;64.80
72585;BME280;60618;40.084;32.908;2023-06-22T05:55:06;89914.28;;;17.18;66.24
72585;BME280;60618;40.084;32.908;2023-06-22T05:57:33;89914.19;;;16.99;64.08
72585;BME280;60618;40.084;32.908;2023-06-22T06:00:00;89902.94;;;16.95;63.14
72585;BME280;60618;40.084;32.908;2023-06-22T06:02:27;89904.50;;;17.15;64.51
72585;BME280;60618;40.084;32.908;2023-06-22T06:04:54;89908.75;;;17.35;62.46
72585;BME280;60618;40.084;32.908;2023-06-22T06:07:21;89899.09;;;17.45;62.95
72585;BME280;60618;40.084;32.908;2023-06-22T06:09:48;89909.63;;;17.73;62.70
72585;BME280;60618;40.084;32.908;2023-06-22T06:12:15;89896.75;;;17.84;56.98
72585;BME280;60618;40.084;32.908;2023-06-22T06:14:42;89901.56;;;17.67;60.07
72585;BME280;60618;40.084;32.908;2023-06-22T06:17:09;89901.88;;;17.64;59.05
72585;BME280;60618;40.084;32.908;2023-06-22T06:19:36;89897.59;;;17.49;60.08
72585;BME280;60618;40.084;32.908;2023-06-22T06:22:03;89903.19;;;17.51;60.45
72585;BME280;60618;40.084;32.908;2023-06-22T06:24:30;89897.78;;;17.81;58.87
72585;BME280;60618;40.084;32.908;2023-06-22T06:26:57;89889.56;;;17.93;59.35
72585;BME280;60618;40.084;32.908;2023-06-22T06:29:24;89900.06;;;17.96;59.92
72585;BME280;60618;40.084;32.908;2023-06-22T06:31:51;89901.94;;;17.82;59.04
72585;BME280;60618;40.084;32.908;2023-06-22T06:34:20;89901.72;;;17.80;56.00
72585;BME280;60618;40.084;32.908;2023-06-22T06:36:47;89898.97;;;18.05;54.99
72585;BME280;60618;40.084;32.908;2023-06-22T06:39:14;89900.44;;;18.06;50.39
72585;BME280;60618;40.084;32.908;2023-06-22T06:41:41;89906.19;;;17.97;50.60
72585;BME280;60618;40.084;32.908;2023-06-22T06:44:08;89913.44;;;18.26;54.12
72585;BME280;60618;40.084;32.908;2023-06-22T06:46:35;89905.72;;;18.55;53.95
72585;BME280;60618;40.084;32.908;2023-06-22T06:49:03;89907.50;;;18.71;50.16
72585;BME280;60618;40.084;32.908;2023-06-22T06:51:30;89904.25;;;18.54;48.82
72585;BME280;60618;40.084;32.908;2023-06-22T06:53:57;89899.31;;;18.39;49.35
72585;BME280;60618;40.084;32.908;2023-06-22T06:56:24;89912.78;;;18.58;48.48
72585;BME280;60618;40.084;32.908;2023-06-22T06:58:51;89911.25;;;18.62;46.97
72585;BME280;60618;40.084;32.908;2023-06-22T07:01:18;89894.50;;;18.88;46.06
72585;BME280;60618;40.084;32.908;2023-06-22T07:03:48;89892.22;;;18.92;46.54
72585;BME280;60618;40.084;32.908;2023-06-22T07:06:15;89914.19;;;18.83;47.02
72585;BME280;60618;40.084;32.908;2023-06-22T07:08:42;89903.56;;;18.72;47.11
72585;BME280;60618;40.084;32.908;2023-06-22T07:11:09;89909.81;;;18.80;48.82
72585;BME280;60618;40.084;32.908;2023-06-22T07:13:36;89903.94;;;18.95;47.30
72585;BME280;60618;40.084;32.908;2023-06-22T07:16:03;89905.53;;;19.04;47.44
72585;BME280;60618;40.084;32.908;2023-06-22T07:18:30;89904.16;;;19.29;47.39
72585;BME280;60618;40.084;32.908;2023-06-22T07:20:57;89903.78;;;19.06;46.67
72585;BME280;60618;40.084;32.908;2023-06-22T07:23:24;89908.69;;;19.21;48.21
72585;BME280;60618;40.084;32.908;2023-06-22T07:25:51;89913.94;;;19.32;48.79
72585;BME280;60618;40.084;32.908;2023-06-22T07:28:18;89916.00;;;19.26;46.02
72585;BME280;60618;40.084;32.908;2023-06-22T07:30:46;89912.81;;;19.09;47.38
72585;BME280;60618;40.084;32.908;2023-06-22T07:33:13;89914.28;;;19.10;47.15
72585;BME280;60618;40.084;32.908;2023-06-22T07:35:40;89911.44;;;19.34;46.90
72585;BME280;60618;40.084;32.908;2023-06-22T07:38:07;89916.72;;;19.26;45.86
72585;BME280;60618;40.084;32.908;2023-06-22T07:40:34;89908.03;;;19.34;45.81
72585;BME280;60618;40.084;32.908;2023-06-22T07:43:01;89918.19;;;19.60;47.21
72585;BME280;60618;40.084;32.908;2023-06-22T07:45:29;89925.66;;;19.67;46.60
72585;BME280;60618;40.084;32.908;2023-06-22T07:47:56;89922.66;;;19.38;45.19
72585;BME280;60618;40.084;32.908;2023-06-22T07:50:23;89917.94;;;19.58;45.54
72585;BME280;60618;40.084;32.908;2023-06-22T07:52:50;89919.75;;;19.81;48.26
72585;BME280;60618;40.084;32.908;2023-06-22T07:55:17;89929.53;;;20.11;44.71
72585;BME280;60618;40.084;32.908;2023-06-22T07:57:46;89920.56;;;19.63;45.45
72585;BME280;60618;40.084;32.908;2023-06-22T08:00:13;89916.84;;;20.06;45.79
72585;BME280;60618;40.084;32.908;2023-06-22T08:02:41;89922.66;;;19.83;44.44
72585;BME280;60618;40.084;32.908;2023-06-22T08:05:09;89906.97;;;19.82;44.47
72585;BME280;60618;40.084;32.908;2023-06-22T08:07:48;89922.38;;;19.87;46.88
72585;BME280;60618;40.084;32.908;2023-06-22T08:10:15;89911.13;;;20.09;45.72
72585;BME280;60618;40.084;32.908;2023-06-22T08:12:42;89911.03;;;20.15;45.99
72585;BME280;60618;40.084;32.908;2023-06-22T08:15:10;89906.22;;;20.21;44.90
72585;BME280;60618;40.084;32.908;2023-06-22T08:17:37;89903.59;;;20.42;43.72
72585;BME280;60618;40.084;32.908;2023-06-22T08:20:06;89907.56;;;20.54;46.34
72585;BME280;60618;40.084;32.908;2023-06-22T08:22:33;89908.41;;;20.49;45.88
72585;BME280;60618;40.084;32.908;2023-06-22T08:25:00;89899.88;;;20.19;42.42
72585;BME280;60618;40.084;32.908;2023-06-22T08:27:27;89903.00;;;20.23;45.00
72585;BME280;60618;40.084;32.908;2023-06-22T08:29:54;89908.63;;;19.98;43.18
72585;BME280;60618;40.084;32.908;2023-06-22T08:32:21;89906.75;;;20.20;43.17
72585;BME280;60618;40.084;32.908;2023-06-22T08:34:48;89903.31;;;20.46;44.05
72585;BME280;60618;40.084;32.908;2023-06-22T08:37:15;89907.28;;;20.45;43.87
72585;BME280;60618;40.084;32.908;2023-06-22T08:39:42;89902.38;;;20.43;45.25
72585;BME280;60618;40.084;32.908;2023-06-22T08:42:09;89902.78;;;20.47;45.35
72585;BME280;60618;40.084;32.908;2023-06-22T08:44:36;89909.44;;;20.59;43.33
72585;BME280;60618;40.084;32.908;2023-06-22T08:47:03;89908.53;;;20.44;41.76
72585;BME280;60618;40.084;32.908;2023-06-22T08:49:30;89912.63;;;20.58;43.66
72585;BME280;60618;40.084;32.908;2023-06-22T08:51:57;89908.13;;;20.74;42.99
72585;BME280;60618;40.084;32.908;2023-06-22T08:54:24;89901.88;;;20.79;43.08
72585;BME280;60618;40.084;32.908;2023-06-22T08:56:51;89912.28;;;20.75;42.38
72585;BME280;60618;40.084;32.908;2023-06-22T08:59:18;89900.56;;;20.93;44.94
72585;BME280;60618;40.084;32.908;2023-06-22T09:01:45;89911.47;;;21.01;44.93
72585;BME280;60618;40.084;32.908;2023-06-22T09:04:11;89912.97;;;21.22;46.07
72585;BME280;60618;40.084;32.908;2023-06-22T09:06:39;89912.38;;;21.16;42.22
72585;BME280;60618;40.084;32.908;2023-06-22T09:09:06;89906.16;;;21.08;42.69
72585;BME280;60618;40.084;32.908;2023-06-22T09:11:33;89908.91;;;20.95;42.09
72585;BME280;60618;40.084;32.908;2023-06-22T09:14:00;89899.91;;;20.79;41.74
72585;BME280;60618;40.084;32.908;2023-06-22T09:16:27;89910.09;;;21.07;43.79
72585;BME280;60618;40.084;32.908;2023-06-22T09:18:54;89918.22;;;21.07;42.72
72585;BME280;60618;40.084;32.908;2023-06-22T09:21:21;89898.59;;;20.59;43.76
72585;BME280;60618;40.084;32.908;2023-06-22T09:23:48;89900.44;;;20.64;44.25
72585;BME280;60618;40.084;32.908;2023-06-22T09:26:15;89899.63;;;20.69;41.23
72585;BME280;60618;40.084;32.908;2023-06-22T09:28:42;89908.47;;;20.70;41.74
72585;BME280;60618;40.084;32.908;2023-06-22T09:31:09;89900.88;;;20.68;43.35
72585;BME280;60618;40.084;32.908;2023-06-22T09:33:37;89907.28;;;20.79;42.72
72585;BME280;60618;40.084;32.908;2023-06-22T09:36:05;89897.03;;;20.98;45.04
72585;BME280;60618;40.084;32.908;2023-06-22T09:41:00;89890.53;;;21.01;41.51
72585;BME280;60618;40.084;32.908;2023-06-22T09:43:27;89904.72;;;21.28;42.59
72585;BME280;60618;40.084;32.908;2023-06-22T09:45:54;89896.91;;;21.24;41.17
72585;BME280;60618;40.084;32.908;2023-06-22T09:48:21;89883.16;;;21.22;42.43
72585;BME280;60618;40.084;32.908;2023-06-22T09:50:48;89904.03;;;21.14;42.05
72585;BME280;60618;40.084;32.908;2023-06-22T09:53:15;89881.13;;;21.15;42.19
72585;BME280;60618;40.084;32.908;2023-06-22T09:55:42;89894.16;;;21.38;41.64
72585;BME280;60618;40.084;32.908;2023-06-22T09:58:09;89885.06;;;21.56;41.62
72585;BME280;60618;40.084;32.908;2023-06-22T10:00:36;89881.47;;;21.82;43.80
72585;BME280;60618;40.084;32.908;2023-06-22T10:03:03;89886.94;;;21.90;42.28
72585;BME280;60618;40.084;32.908;2023-06-22T10:05:30;89882.66;;;21.73;40.87
72585;BME280;60618;40.084;32.908;2023-06-22T10:07:58;89881.28;;;21.80;42.14
72585;BME280;60618;40.084;32.908;2023-06-22T10:10:24;89881.03;;;21.70;40.80
72585;BME280;60618;40.084;32.908;2023-06-22T10:13:06;89879.28;;;21.80;41.17
72585;BME280;60618;40.084;32.908;2023-06-22T10:15:34;89883.28;;;22.08;41.95
72585;BME280;60618;40.084;32.908;2023-06-22T10:18:01;89878.09;;;22.18;42.05
72585;BME280;60618;40.084;32.908;2023-06-22T10:20:28;89882.06;;;22.17;40.99
72585;BME280;60618;40.084;32.908;2023-06-22T10:22:55;89886.75;;;22.16;40.74
72585;BME280;60618;40.084;32.908;2023-06-22T10:25:27;89871.34;;;22.47;42.18
72585;BME280;60618;40.084;32.908;2023-06-22T10:27:54;89877.69;;;22.50;40.61
72585;BME280;60618;40.084;32.908;2023-06-22T13:01:56;89821.56;;;23.19;39.31
72585;BME280;60618;40.084;32.908;2023-06-22T13:04:23;89823.00;;;23.05;39.41
72585;BME280;60618;40.084;32.908;2023-06-22T13:06:50;89825.16;;;23.06;40.42
72585;BME280;60618;40.084;32.908;2023-06-22T13:09:18;89828.03;;;22.85;39.11
72585;BME280;60618;40.084;32.908;2023-06-22T13:11:47;89816.47;;;22.92;40.29
72585;BME280;60618;40.084;32.908;2023-06-22T13:14:14;89817.94;;;23.16;40.13
72585;BME280;60618;40.084;32.908;2023-06-22T13:16:41;89822.28;;;23.12;40.07
72585;BME280;60618;40.084;32.908;2023-06-22T13:19:08;89833.16;;;23.12;40.04
72585;BME280;60618;40.084;32.908;2023-06-22T13:21:36;89812.31;;;23.07;39.30
72585;BME280;60618;40.084;32.908;2023-06-22T13:24:03;89816.84;;;23.04;38.39
72585;BME280;60618;40.084;32.908;2023-06-22T13:26:31;89820.09;;;23.41;38.86
72585;BME280;60618;40.084;32.908;2023-06-22T13:28:58;89806.31;;;23.77;39.93
72585;BME280;60618;40.084;32.908;2023-06-22T13:31:24;89816.78;;;24.03;36.83
72585;BME280;60618;40.084;32.908;2023-06-22T13:33:52;89806.22;;;24.15;38.63
72585;BME280;60618;40.084;32.908;2023-06-22T13:36:19;89816.47;;;23.92;37.80
72585;BME280;60618;40.084;32.908;2023-06-22T13:38:46;89817.72;;;23.91;37.45
72585;BME280;60618;40.084;32.908;2023-06-22T13:41:13;89817.94;;;23.70;37.16
72585;BME280;60618;40.084;32.908;2023-06-22T13:43:40;89819.56;;;23.73;38.20
72585;BME280;60618;40.084;32.908;2023-06-22T13:46:07;89813.19;;;23.86;37.57
72585;BME280;60618;40.084;32.908;2023-06-22T13:48:34;89811.41;;;23.73;36.56
72585;BME280;60618;40.084;32.908;2023-06-22T13:51:01;89806.31;;;23.85;37.23
72585;BME280;60618;40.084;32.908;2023-06-22T13:53:28;89800.16;;;23.76;37.91
72585;BME280;60618;40.084;32.908;2023-06-22T13:55:56;89796.88;;;23.86;36.40
72585;BME280;60618;40.084;32.908;2023-06-22T13:58:22;89793.13;;;23.66;36.79
72585;BME280;60618;40.084;32.908;2023-06-22T14:00:49;89802.72;;;23.74;37.21
72585;BME280;60618;40.084;32.908;2023-06-22T14:03:16;89789.03;;;23.97;37.20
72585;BME280;60618;40.084;32.908;2023-06-22T14:05:43;89798.13;;;23.92;36.88
72585;BME280;60618;40.084;32.908;2023-06-22T14:08:11;89795.41;;;24.00;37.75
72585;BME280;60618;40.084;32.908;2023-06-22T14:10:58;89791.47;;;23.63;37.70
72585;BME280;60618;40.084;32.908;2023-06-22T14:13:25;89791.09;;;23.43;38.34
72585;BME280;60618;40.084;32.908;2023-06-22T14:15:52;89791.47;;;22.86;40.14
72585;BME280;60618;40.084;32.908;2023-06-22T14:18:19;89783.44;;;22.65;40.53
72585;BME280;60618;40.084;32.908;2023-06-22T14:20:46;89789.97;;;22.70;40.68
72585;BME280;60618;40.084;32.908;2023-06-22T14:23:13;89792.31;;;22.66;40.47
72585;BME280;60618;40.084;32.908;2023-06-22T14:25:40;89785.97;;;22.63;39.34
72585;BME280;60618;40.084;32.908;2023-06-22T14:28:07;89788.50;;;22.69;40.01
72585;BME280;60618;40.084;32.908;2023-06-22T14:30:34;89772.66;;;23.04;40.48
72585;BME280;60618;40.084;32.908;2023-06-22T14:33:01;89778.44;;;23.31;38.56
72585;BME280;60618;40.084;32.908;2023-06-22T14:35:28;89773.69;;;23.54;37.94
72585;BME280;60618;40.084;32.908;2023-06-22T14:37:55;89783.50;;;23.65;38.20
72585;BME280;60618;40.084;32.908;2023-06-22T14:40:22;89789.28;;;23.69;38.91
72585;BME280;60618;40.084;32.908;2023-06-22T14:42:52;89781.69;;;23.60;37.18
72585;BME280;60618;40.084;32.908;2023-06-22T14:45:19;89780.97;;;23.67;38.20
72585;BME280;60618;40.084;32.908;2023-06-22T14:47:46;89778.06;;;23.34;39.21
72585;BME280;60618;40.084;32.908;2023-06-22T14:50:13;89788.75;;;23.47;39.20
72585;BME280;60618;40.084;32.908;2023-06-22T14:52:41;89777.34;;;23.03;41.47
72585;BME280;60618;40.084;32.908;2023-06-22T14:55:09;89783.63;;;22.67;41.42
72585;BME280;60618;40.084;32.908;2023-06-22T14:57:36;89783.44;;;22.58;41.17
72585;BME280;60618;40.084;32.908;2023-06-22T15:00:03;89789.38;;;22.49;42.92
72585;BME280;60618;40.084;32.908;2023-06-22T15:02:30;89786.69;;;22.56;39.45
72585;BME280;60618;40.084;32.908;2023-06-22T15:04:57;89777.28;;;22.57;41.51
72585;BME280;60618;40.084;32.908;2023-06-22T15:07:24;89782.34;;;22.61;40.20
72585;BME280;60618;40.084;32.908;2023-06-22T15:09:51;89779.44;;;22.51;40.72
72585;BME280;60618;40.084;32.908;2023-06-22T15:12:18;89779.78;;;22.48;42.86
72585;BME280;60618;40.084;32.908;2023-06-22T15:14:45;89781.06;;;22.47;41.43
72585;BME280;60618;40.084;32.908;2023-06-22T15:17:12;89784.28;;;22.45;40.89
72585;BME280;60618;40.084;32.908;2023-06-22T15:19:39;89777.97;;;22.43;41.95
72585;BME280;60618;40.084;32.908;2023-06-22T15:22:07;89788.16;;;22.65;40.62
72585;BME280;60618;40.084;32.908;2023-06-22T15:24:34;89784.53;;;22.78;41.54
72585;BME280;60618;40.084;32.908;2023-06-22T15:27:01;89783.44;;;22.73;39.65
72585;BME280;60618;40.084;32.908;2023-06-22T15:29:28;89790.31;;;22.66;40.62
72585;BME280;60618;40.084;32.908;2023-06-22T15:31:55;89782.72;;;22.73;40.03